Time;durP1;ratioP1;P1;durP2;ratioP2;P2;SDS_P1;SDS_P2;PMS_P1;PMS_P2;Temp;Humidity;BMP_temperature;BMP_pressure;BME280_temperature;BME280_humidity;BME280_pressure;Samples;Min_cycle;Max_cycle;Signal;HPM_P1;HPM_P2
2023/10/18 00:01:44;;;;;;;1999.90;999.90;;;5.00;99.90;;;;;;5105118;28;20520;-75
2023/10/18 00:04:14;;;;;;;1999.90;999.90;;;4.90;99.90;;;;;;5109893;28;20459;-74
2023/10/18 00:06:41;;;;;;;1999.90;999.90;;;4.90;99.90;;;;;;5102135;28;20475;-74
2023/10/18 00:11:49;;;;;;;1999.90;999.90;;;4.80;99.90;;;;;;5106212;28;20503;-74
2023/10/18 00:14:18;;;;;;;1999.90;999.90;;;4.80;99.90;;;;;;5112130;28;20538;-74
2023/10/18 00:16:44;;;;;;;1999.90;999.90;;;4.80;99.90;;;;;;5110698;28;20434;-74
2023/10/18 00:19:12;;;;;;;1999.90;999.90;;;4.80;99.90;;;;;;5111134;28;20431;-74
2023/10/18 00:21:39;;;;;;;1999.90;999.90;;;4.90;99.90;;;;;;5097658;28;20426;-74
2023/10/18 00:24:07;;;;;;;1999.90;999.90;;;5.10;99.90;;;;;;5105742;28;20424;-72
2023/10/18 00:26:33;;;;;;;1999.90;999.90;;;5.10;99.90;;;;;;5105277;28;20424;-74
2023/10/18 00:29:00;;;;;;;1999.90;999.90;;;5.10;99.90;;;;;;5108708;28;20436;-73
2023/10/18 00:31:28;;;;;;;1999.90;999.90;;;5.00;99.90;;;;;;5110299;28;20428;-74
2023/10/18 00:33:55;;;;;;;1999.90;999.90;;;5.00;99.90;;;;;;5101167;28;20432;-74
2023/10/18 00:36:22;;;;;;;1999.90;999.90;;;5.00;99.90;;;;;;5097750;28;20438;-74
2023/10/18 00:38:48;;;;;;;1999.90;999.90;;;4.90;99.90;;;;;;5103854;28;20432;-74
2023/10/18 00:41:16;;;;;;;1999.90;999.90;;;4.90;99.90;;;;;;5110768;28;20427;-75
2023/10/18 00:43:44;;;;;;;1999.90;999.90;;;4.80;99.90;;;;;;5110588;28;20428;-74
2023/10/18 00:46:13;;;;;;;1999.90;999.90;;;4.60;99.90;;;;;;5103309;28;20465;-71
2023/10/18 00:48:44;;;;;;;1999.90;999.90;;;4.70;99.90;;;;;;5108597;28;20467;-74
2023/10/18 00:51:16;;;;;;;1999.90;999.90;;;4.70;99.90;;;;;;5104651;27;20429;-73
2023/10/18 00:53:43;;;;;;;1999.90;999.90;;;4.70;99.90;;;;;;5111568;28;20913;-73
2023/10/18 00:56:12;;;;;;;1999.90;999.90;;;4.60;99.90;;;;;;5107211;28;20428;-74
2023/10/18 00:58:39;;;;;;;1999.90;999.90;;;4.70;99.90;;;;;;5107141;28;20980;-74
2023/10/18 01:01:09;;;;;;;1999.90;999.90;;;4.70;99.90;;;;;;5105621;28;20430;-75
2023/10/18 01:03:38;;;;;;;1999.90;999.90;;;4.70;99.90;;;;;;5100771;28;20942;-75
2023/10/18 01:06:08;;;;;;;1999.90;999.90;;;4.70;99.90;;;;;;5105434;27;20485;-74
2023/10/18 01:08:37;;;;;;;1999.90;999.90;;;4.70;99.90;;;;;;5102330;28;20421;-74
2023/10/18 01:11:06;;;;;;;1999.90;999.90;;;4.60;99.90;;;;;;5095353;28;20438;-74
2023/10/18 01:13:36;;;;;;;1999.90;999.90;;;4.50;99.90;;;;;;5102794;28;20416;-74
2023/10/18 01:16:07;;;;;;;1999.90;999.90;;;4.50;99.90;;;;;;5102756;28;20458;-74
2023/10/18 01:18:34;;;;;;;1999.90;999.90;;;4.40;99.90;;;;;;5103165;28;20513;-74
2023/10/18 01:21:13;;;;;;;1999.90;999.90;;;4.40;99.90;;;;;;5100045;28;20911;-74
2023/10/18 01:23:42;;;;;;;1999.90;999.90;;;4.50;99.90;;;;;;5100543;28;20429;-74
2023/10/18 01:26:13;;;;;;;1999.90;999.90;;;4.50;99.90;;;;;;5107681;28;20429;-74
2023/10/18 01:28:40;;;;;;;1999.90;999.90;;;4.50;99.90;;;;;;5108081;28;20428;-74
2023/10/18 01:31:07;;;;;;;1999.90;999.90;;;4.40;99.90;;;;;;5101708;28;20424;-74
2023/10/18 01:33:40;;;;;;;1999.90;999.90;;;4.40;99.90;;;;;;5100671;28;20483;-73
2023/10/18 01:36:11;;;;;;;1999.90;999.90;;;4.40;99.90;;;;;;5100268;28;20478;-74
2023/10/18 01:38:38;;;;;;;1999.90;999.90;;;4.30;99.90;;;;;;5105859;28;20424;-74
2023/10/18 01:41:09;;;;;;;1999.90;999.90;;;4.30;99.90;;;;;;5110301;28;20483;-74
2023/10/18 01:43:37;;;;;;;1999.90;999.90;;;4.20;99.90;;;;;;5098747;28;20912;-74
2023/10/18 01:46:08;;;;;;;1999.90;999.90;;;4.20;99.90;;;;;;5104343;28;20419;-73
2023/10/18 01:48:37;;;;;;;1999.90;999.90;;;4.10;99.90;;;;;;5106137;28;20538;-74
2023/10/18 01:51:06;;;;;;;1999.90;999.90;;;4.10;99.90;;;;;;5107773;28;20493;-74
2023/10/18 01:53:33;;;;;;;1999.90;999.90;;;4.10;99.90;;;;;;5096652;28;20428;-72
2023/10/18 01:56:01;;;;;;;1999.90;999.90;;;4.00;99.90;;;;;;5098241;28;20535;-74
2023/10/18 01:58:29;;;;;;;1999.90;999.90;;;4.00;99.90;;;;;;5100020;28;20856;-74
2023/10/18 02:00:58;;;;;;;1999.90;999.90;;;4.00;99.90;;;;;;5106605;28;20459;-75
2023/10/18 02:03:25;;;;;;;1999.90;999.90;;;4.00;99.90;;;;;;5107304;28;20420;-74
2023/10/18 02:05:51;;;;;;;1999.90;999.90;;;3.90;99.90;;;;;;5103965;28;20429;-74
2023/10/18 02:08:18;;;;;;;1999.90;999.90;;;4.00;99.90;;;;;;5100430;28;20910;-73
2023/10/18 02:10:46;;;;;;;1999.90;999.90;;;4.00;99.90;;;;;;5102610;28;20929;-75
2023/10/18 02:13:13;;;;;;;1999.90;999.90;;;4.00;99.90;;;;;;5108080;28;20428;-75
2023/10/18 02:15:41;;;;;;;1999.90;999.90;;;4.00;99.90;;;;;;5107909;28;20428;-75
2023/10/18 02:18:09;;;;;;;1999.90;999.90;;;4.10;99.90;;;;;;5104276;28;20428;-75
2023/10/18 02:20:37;;;;;;;1999.90;999.90;;;4.00;99.90;;;;;;5108770;28;20428;-74
2023/10/18 02:23:11;;;;;;;1999.90;999.90;;;4.00;99.90;;;;;;5105174;28;20424;-72
2023/10/18 02:25:43;;;;;;;1999.90;999.90;;;4.00;99.90;;;;;;5102561;28;21008;-74
2023/10/18 02:28:22;;;;;;;1999.90;999.90;;;3.90;99.90;;;;;;5107426;28;20459;-74
2023/10/18 02:30:55;;;;;;;1999.90;999.90;;;4.00;99.90;;;;;;5098223;28;20430;-74
2023/10/18 02:33:24;;;;;;;1999.90;999.90;;;4.00;99.90;;;;;;5101871;28;20432;-73
2023/10/18 02:35:51;;;;;;;1999.90;999.90;;;4.00;99.90;;;;;;5099883;28;20426;-73
2023/10/18 02:38:20;;;;;;;1999.90;999.90;;;4.10;99.90;;;;;;5103913;28;20913;-75
2023/10/18 02:40:49;;;;;;;1999.90;999.90;;;4.00;99.90;;;;;;5100871;28;20416;-73
2023/10/18 02:43:16;;;;;;;1999.90;999.90;;;4.00;99.90;;;;;;5096608;28;20422;-75
2023/10/18 02:45:51;;;;;;;1999.90;999.90;;;3.90;99.90;;;;;;5104539;28;20932;-74
2023/10/18 02:48:22;;;;;;;1999.90;999.90;;;4.00;99.90;;;;;;5107658;28;20428;-74
2023/10/18 02:50:53;;;;;;;1999.90;999.90;;;4.00;99.90;;;;;;5099375;28;20492;-73
2023/10/18 02:53:20;;;;;;;1999.90;999.90;;;4.00;99.90;;;;;;5097389;28;20425;-73
2023/10/18 02:55:55;;;;;;;1999.90;999.90;;;4.20;99.90;;;;;;5105530;28;20489;-75
2023/10/18 02:58:22;;;;;;;1999.90;999.90;;;4.30;99.90;;;;;;5106896;28;20430;-74
2023/10/18 03:00:50;;;;;;;1999.90;999.90;;;4.40;99.90;;;;;;5102647;28;20904;-74
2023/10/18 03:03:21;;;;;;;1999.90;999.90;;;4.30;99.90;;;;;;5099870;28;20427;-75
2023/10/18 03:05:51;;;;;;;1999.90;999.90;;;4.20;99.90;;;;;;5097240;28;20436;-74
2023/10/18 03:08:20;;;;;;;1999.90;999.90;;;4.10;99.90;;;;;;5106241;28;20917;-74
2023/10/18 03:10:48;;;;;;;1999.90;999.90;;;4.10;99.90;;;;;;5103030;28;20435;-74
2023/10/18 03:13:17;;;;;;;1999.90;999.90;;;4.10;99.90;;;;;;5100445;28;20510;-72
2023/10/18 03:15:55;;;;;;;1999.90;999.90;;;4.00;99.90;;;;;;5094071;28;20958;-73
2023/10/18 03:18:25;;;;;;;1999.90;999.90;;;4.00;99.90;;;;;;5104739;28;20424;-74
2023/10/18 03:20:56;;;;;;;1999.90;999.90;;;4.00;99.90;;;;;;5107256;28;20844;-72
2023/10/18 03:23:26;;;;;;;1999.90;999.90;;;4.10;99.90;;;;;;5103648;28;20420;-74
2023/10/18 03:25:59;;;;;;;1999.90;999.90;;;4.00;99.90;;;;;;5104239;28;21261;-73
2023/10/18 03:28:33;;;;;;;1999.90;999.90;;;4.00;99.90;;;;;;5108436;28;20497;-74
2023/10/18 03:31:04;;;;;;;1999.90;999.90;;;3.90;99.90;;;;;;5102721;28;20509;-74
2023/10/18 03:33:32;;;;;;;1999.90;999.90;;;3.90;99.90;;;;;;5108560;28;20428;-75
2023/10/18 03:36:17;;;;;;;1999.90;999.90;;;3.90;99.90;;;;;;5108279;28;20430;-73
2023/10/18 03:38:51;;;;;;;1999.90;999.90;;;3.90;99.90;;;;;;5109666;28;20456;-73
2023/10/18 03:41:19;;;;;;;1999.90;999.90;;;3.80;99.90;;;;;;5108648;28;20984;-73
2023/10/18 03:43:48;;;;;;;1999.90;999.90;;;3.70;99.90;;;;;;5106434;28;20430;-74
2023/10/18 03:46:19;;;;;;;1999.90;999.90;;;3.70;99.90;;;;;;5105287;28;20479;-74
2023/10/18 03:48:52;;;;;;;1999.90;999.90;;;3.60;99.90;;;;;;5105211;28;20923;-74
2023/10/18 03:51:23;;;;;;;1999.90;999.90;;;3.60;99.90;;;;;;5112780;28;20424;-75
2023/10/18 03:53:52;;;;;;;1999.90;999.90;;;3.40;99.90;;;;;;5125523;28;20424;-75
2023/10/18 03:56:21;;;;;;;1999.90;999.90;;;3.30;99.90;;;;;;5130154;28;20424;-74
2023/10/18 03:59:00;;;;;;;1999.90;999.90;;;3.10;99.90;;;;;;5131416;28;20488;-75
2023/10/18 04:01:28;;;;;;;1999.90;999.90;;;3.00;99.90;;;;;;5104492;28;20426;-74
2023/10/18 04:03:56;;;;;;;1999.90;999.90;;;3.00;99.90;;;;;;5109486;28;20481;-73
2023/10/18 04:06:28;;;;;;;1999.90;999.90;;;3.00;99.90;;;;;;5105218;28;20456;-74
2023/10/18 04:08:58;;;;;;;1999.90;999.90;;;2.90;99.90;;;;;;5100670;28;20452;-73
2023/10/18 04:11:26;;;;;;;1999.90;999.90;;;2.90;99.90;;;;;;5101060;28;20925;-75
2023/10/18 04:13:53;;;;;;;1999.90;999.90;;;2.80;99.90;;;;;;5103253;28;20428;-74
2023/10/18 04:16:28;;;;;;;1999.90;999.90;;;2.70;99.90;;;;;;5098095;28;20425;-73
2023/10/18 04:18:56;;;;;;;1999.90;999.90;;;2.70;99.90;;;;;;5099625;28;20464;-74
2023/10/18 04:21:27;;;;;;;1999.90;999.90;;;2.60;99.90;;;;;;5103148;28;20459;-73
2023/10/18 04:23:56;;;;;;;1999.90;999.90;;;2.50;99.90;;;;;;5097001;28;20426;-74
2023/10/18 04:26:25;;;;;;;1999.90;999.90;;;2.50;99.90;;;;;;5103961;28;20924;-73
2023/10/18 04:28:57;;;;;;;1999.90;999.90;;;2.50;99.90;;;;;;5106006;28;20804;-74
2023/10/18 04:31:24;;;;;;;1999.90;999.90;;;2.60;99.90;;;;;;5102453;28;20431;-74
2023/10/18 04:33:52;;;;;;;1999.90;999.90;;;2.60;99.90;;;;;;5097412;28;20430;-74
2023/10/18 04:36:22;;;;;;;1999.90;999.90;;;2.50;99.90;;;;;;5100098;28;20426;-73
2023/10/18 04:38:52;;;;;;;1999.90;999.90;;;2.50;99.90;;;;;;5108678;28;20434;-73
2023/10/18 04:41:28;;;;;;;1999.90;999.90;;;2.50;99.90;;;;;;5102280;28;20914;-74
2023/10/18 04:44:04;;;;;;;1999.90;999.90;;;2.40;99.90;;;;;;5109320;28;20559;-74
2023/10/18 04:46:31;;;;;;;1999.90;999.90;;;2.40;99.90;;;;;;5098098;28;20430;-74
2023/10/18 04:49:15;;;;;;;1999.90;999.90;;;2.40;99.90;;;;;;5108297;28;20428;-73
2023/10/18 04:51:48;;;;;;;1999.90;999.90;;;2.20;99.90;;;;;;5105702;28;20477;-74
2023/10/18 04:54:18;;;;;;;1999.90;999.90;;;2.20;99.90;;;;;;5102080;28;20470;-73
2023/10/18 04:56:45;;;;;;;1999.90;999.90;;;2.10;99.90;;;;;;5096641;28;20520;-74
2023/10/18 04:59:26;;;;;;;1999.90;999.90;;;2.20;99.90;;;;;;5107016;28;20454;-73
2023/10/18 05:01:56;;;;;;;1999.90;999.90;;;2.20;99.90;;;;;;5103270;28;20429;-71
2023/10/18 05:04:29;;;;;;;1999.90;999.90;;;2.10;99.90;;;;;;5101244;28;20925;-72
2023/10/18 05:06:55;;;;;;;1999.90;999.90;;;2.10;99.90;;;;;;5098377;28;20463;-72
2023/10/18 05:09:31;;;;;;;1999.90;999.90;;;2.10;99.90;;;;;;5105346;28;20428;-73
2023/10/18 05:11:59;;;;;;;1999.90;999.90;;;2.10;99.90;;;;;;5093692;28;20430;-74
2023/10/18 05:14:40;;;;;;;1999.90;999.90;;;2.10;99.90;;;;;;5106312;28;20460;-73
2023/10/18 05:17:11;;;;;;;1999.90;999.90;;;2.00;99.90;;;;;;5104257;28;20862;-72
2023/10/18 05:19:41;;;;;;;1999.90;999.90;;;2.00;99.90;;;;;;5106358;28;20489;-73
2023/10/18 05:22:09;;;;;;;1999.90;999.90;;;2.00;99.90;;;;;;5096896;28;20795;-73
2023/10/18 05:24:38;;;;;;;1999.90;999.90;;;2.10;99.90;;;;;;5108735;28;20506;-73
2023/10/18 05:27:19;;;;;;;1999.90;999.90;;;2.00;99.90;;;;;;5094964;28;20457;-74
2023/10/18 05:29:51;;;;;;;1999.90;999.90;;;2.10;99.90;;;;;;5104963;28;20423;-73
2023/10/18 05:32:36;;;;;;;1999.90;999.90;;;2.10;99.90;;;;;;5100288;28;20532;-74
2023/10/18 05:35:19;;;;;;;1999.90;999.90;;;2.00;99.90;;;;;;5097585;28;20428;-75
2023/10/18 05:37:50;;;;;;;1999.90;999.90;;;2.00;99.90;;;;;;5094627;28;20424;-73
2023/10/18 05:43:04;;;;;;;1999.90;999.90;;;2.20;99.90;;;;;;5101257;28;20423;-72
2023/10/18 05:45:31;;;;;;;1999.90;999.90;;;2.20;99.90;;;;;;5090235;28;20911;-73
2023/10/18 05:48:02;;;;;;;1999.90;999.90;;;2.20;99.90;;;;;;5101330;28;20495;-74
2023/10/18 05:50:31;;;;;;;1999.90;999.90;;;2.30;99.90;;;;;;5094530;28;20490;-73
2023/10/18 05:53:06;;;;;;;1999.90;999.90;;;1.90;99.90;;;;;;5110563;28;20463;-73
2023/10/18 05:55:38;;;;;;;1999.90;999.90;;;2.30;99.90;;;;;;5101469;28;20462;-74
2023/10/18 05:58:05;;;;;;;1999.90;999.90;;;2.30;99.90;;;;;;5102608;28;20862;-73
2023/10/18 06:00:35;;;;;;;1999.90;999.90;;;2.40;99.90;;;;;;5098973;28;20509;-74
2023/10/18 06:03:02;;;;;;;1999.90;999.90;;;2.50;99.90;;;;;;5099649;28;21364;-73
2023/10/18 06:05:33;;;;;;;1999.90;999.90;;;2.40;99.90;;;;;;5098906;28;20427;-74
2023/10/18 06:08:01;;;;;;;1999.90;999.90;;;2.40;99.90;;;;;;5096039;28;20430;-74
2023/10/18 06:10:27;;;;;;;1999.90;999.90;;;2.50;99.90;;;;;;5105538;28;20470;-74
2023/10/18 06:12:58;;;;;;;1999.90;999.90;;;2.60;99.90;;;;;;5097597;28;20433;-74
2023/10/18 06:15:34;;;;;;;1999.90;999.90;;;2.60;99.90;;;;;;5101886;28;20897;-74
2023/10/18 06:18:01;;;;;;;1999.90;999.90;;;2.60;99.90;;;;;;5099488;28;20483;-72
2023/10/18 06:20:28;;;;;;;1999.90;999.90;;;2.50;99.90;;;;;;5101515;28;20412;-74
2023/10/18 06:23:07;;;;;;;1999.90;999.90;;;2.60;99.90;;;;;;5098158;28;20433;-73
2023/10/18 06:25:44;;;;;;;1999.90;999.90;;;2.60;99.90;;;;;;5103774;28;20436;-74
2023/10/18 06:28:19;;;;;;;1999.90;999.90;;;2.70;99.90;;;;;;5095264;28;20434;-73
2023/10/18 06:30:49;;;;;;;1999.90;999.90;;;2.60;99.90;;;;;;5095558;28;20428;-73
2023/10/18 06:33:18;;;;;;;1999.90;999.90;;;2.80;99.90;;;;;;5093327;28;20461;-73
2023/10/18 06:35:51;;;;;;;1999.90;999.90;;;2.80;99.90;;;;;;5100485;28;20477;-74
2023/10/18 06:38:18;;;;;;;1999.90;999.90;;;2.70;99.90;;;;;;5093707;28;20479;-74
2023/10/18 06:40:50;;;;;;;1999.90;999.90;;;2.80;99.90;;;;;;5098180;28;20428;-74
2023/10/18 06:43:20;;;;;;;1999.90;999.90;;;2.80;99.90;;;;;;5098851;28;20438;-74
2023/10/18 06:45:48;;;;;;;1999.90;999.90;;;2.90;99.90;;;;;;5094843;28;20425;-74
2023/10/18 06:48:15;;;;;;;1999.90;999.90;;;3.00;99.90;;;;;;5091719;28;20426;-73
2023/10/18 06:50:45;;;;;;;1999.90;999.90;;;3.00;99.90;;;;;;5092781;28;20937;-73
2023/10/18 06:53:14;;;;;;;1999.90;999.90;;;3.10;99.90;;;;;;5093888;28;20432;-73
2023/10/18 06:55:44;;;;;;;1999.90;999.90;;;3.30;99.90;;;;;;5094935;28;20906;-73
2023/10/18 06:58:13;;;;;;;1999.90;999.90;;;3.40;99.90;;;;;;5096573;28;20424;-73
2023/10/18 07:00:46;;;;;;;1999.90;999.90;;;3.60;99.90;;;;;;5098303;28;20467;-73
2023/10/18 07:03:17;;;;;;;1999.90;999.90;;;3.70;99.90;;;;;;5089327;28;20465;-73
2023/10/18 07:05:47;;;;;;;1999.90;999.90;;;3.80;99.90;;;;;;5092198;28;20919;-74
2023/10/18 07:08:20;;;;;;;1999.90;999.90;;;3.90;99.90;;;;;;5092625;28;20437;-74
2023/10/18 07:10:54;;;;;;;1999.90;999.90;;;4.10;99.90;;;;;;5106842;28;20481;-74
2023/10/18 07:13:24;;;;;;;1999.90;999.90;;;4.10;99.90;;;;;;5112706;28;20428;-73
2023/10/18 07:15:52;;;;;;;1999.90;999.90;;;4.20;99.90;;;;;;5111286;27;20443;-74
2023/10/18 07:18:20;;;;;;;1999.90;999.90;;;4.10;99.90;;;;;;5094317;28;20923;-74
2023/10/18 07:20:49;;;;;;;1999.90;999.90;;;4.10;99.90;;;;;;5099646;28;20449;-74
2023/10/18 07:23:21;;;;;;;1999.90;999.90;;;4.10;99.90;;;;;;5091964;28;20880;-74
2023/10/18 07:25:48;;;;;;;1999.90;999.90;;;4.20;99.90;;;;;;5091999;28;20410;-74
2023/10/18 07:28:15;;;;;;;1999.90;999.90;;;4.20;99.90;;;;;;5098560;28;20424;-74
2023/10/18 07:30:44;;;;;;;1999.90;999.90;;;4.40;99.90;;;;;;5112634;28;20461;-74
2023/10/18 07:33:12;;;;;;;1999.90;999.90;;;4.50;99.90;;;;;;5111273;28;20449;-73
2023/10/18 07:35:44;;;;;;;1999.90;999.90;;;4.50;99.90;;;;;;5106303;28;20516;-73
2023/10/18 07:38:10;;;;;;;1999.90;999.90;;;4.40;99.90;;;;;;5111891;28;20428;-73
2023/10/18 07:40:41;;;;;;;1999.90;999.90;;;4.50;99.90;;;;;;5105976;28;20886;-74
2023/10/18 07:43:12;;;;;;;1999.90;999.90;;;4.60;99.90;;;;;;5114026;28;20461;-73
2023/10/18 07:45:39;;;;;;;1999.90;999.90;;;4.70;99.90;;;;;;5095229;28;20979;-74
2023/10/18 07:48:11;;;;;;;1999.90;999.90;;;4.90;99.90;;;;;;5112856;28;20408;-74
2023/10/18 07:50:49;;;;;;;1999.90;999.90;;;4.90;99.90;;;;;;5106218;28;20483;-73
2023/10/18 07:53:20;;;;;;;1999.90;999.90;;;5.10;99.90;;;;;;5113523;28;20514;-72
2023/10/18 07:55:48;;;;;;;1999.90;999.90;;;5.20;99.90;;;;;;5110488;28;20950;-73
2023/10/18 07:58:24;;;;;;;1999.90;999.90;;;5.10;99.90;;;;;;5106280;28;20427;-73
2023/10/18 08:01:08;;;;;;;1999.90;999.90;;;5.20;99.90;;;;;;5113095;28;20400;-72
2023/10/18 08:03:36;;;;;;;1999.90;999.90;;;5.40;99.90;;;;;;5115154;28;20388;-74
2023/10/18 08:06:15;;;;;;;1999.90;999.90;;;5.50;99.90;;;;;;5125167;28;20955;-74
2023/10/18 08:08:42;;;;;;;1999.90;999.90;;;5.60;99.90;;;;;;5105373;28;20488;-74
2023/10/18 08:11:12;;;;;;;1999.90;999.90;;;5.70;99.90;;;;;;5104461;28;20429;-73
2023/10/18 08:13:45;;;;;;;1999.90;999.90;;;5.80;99.90;;;;;;5112846;28;20902;-74
2023/10/18 08:16:19;;;;;;;1999.90;999.90;;;5.90;99.90;;;;;;5110073;28;20440;-73
2023/10/18 08:18:52;;;;;;;1999.90;999.90;;;5.80;99.90;;;;;;5105662;28;20423;-73
2023/10/18 08:21:36;;;;;;;1999.90;999.90;;;5.70;99.90;;;;;;5112803;28;20405;-75
2023/10/18 08:24:08;;;;;;;1999.90;999.90;;;5.70;99.90;;;;;;5113062;28;20419;-73
2023/10/18 08:26:45;;;;;;;1999.90;999.90;;;5.90;99.90;;;;;;5111493;28;20557;-72
2023/10/18 08:29:12;;;;;;;1999.90;999.90;;;5.90;99.90;;;;;;5111161;28;20432;-72
2023/10/18 08:31:39;;;;;;;1999.90;999.90;;;6.00;99.90;;;;;;5100645;28;20421;-74
2023/10/18 08:34:06;;;;;;;1999.90;999.90;;;6.10;99.90;;;;;;5097759;28;20424;-74
2023/10/18 08:36:34;;;;;;;1999.90;999.90;;;6.10;99.90;;;;;;5107873;28;20439;-74
2023/10/18 08:39:02;;;;;;;1999.90;999.90;;;6.30;99.90;;;;;;5110869;28;20486;-73
2023/10/18 08:41:32;;;;;;;1999.90;999.90;;;6.50;99.90;;;;;;5109571;28;20467;-74
2023/10/18 08:44:15;;;;;;;1999.90;999.90;;;6.70;99.90;;;;;;5100494;28;20422;-70
2023/10/18 08:46:51;;;;;;;1999.90;999.90;;;6.80;99.90;;;;;;5103874;28;20511;-74
2023/10/18 08:49:21;;;;;;;1999.90;999.90;;;7.00;99.90;;;;;;5112447;28;20408;-74
2023/10/18 08:52:04;;;;;;;1999.90;999.90;;;7.00;99.90;;;;;;5112502;28;20412;-74
2023/10/18 08:54:33;;;;;;;1999.90;999.90;;;7.20;99.90;;;;;;5110036;28;20432;-73
2023/10/18 08:57:06;;;;;;;1999.90;999.90;;;7.40;99.90;;;;;;5110319;28;20798;-74
2023/10/18 08:59:42;;;;;;;1999.90;999.90;;;7.50;99.90;;;;;;5110030;28;20414;-74
2023/10/18 09:02:12;;;;;;;1999.90;999.90;;;7.70;99.90;;;;;;5106619;28;20948;-74
2023/10/18 09:04:44;;;;;;;1999.90;999.90;;;7.90;99.90;;;;;;5101144;28;20420;-75
2023/10/18 09:09:59;;;;;;;1999.90;999.90;;;8.00;99.90;;;;;;5097187;28;20421;-73
2023/10/18 09:12:50;;;;;;;1999.90;999.90;;;8.20;99.90;;;;;;5095146;28;20517;-74
2023/10/18 09:15:28;;;;;;;1999.90;999.90;;;8.40;99.90;;;;;;5098358;28;20790;-74
2023/10/18 09:17:56;;;;;;;1999.90;999.90;;;8.60;99.90;;;;;;5100070;28;20459;-74
2023/10/18 09:20:26;;;;;;;1999.90;999.90;;;8.50;99.90;;;;;;5100818;28;20512;-72
2023/10/18 09:23:01;;;;;;;1999.90;999.90;;;8.70;99.90;;;;;;5098270;28;21665;-74
2023/10/18 09:25:28;;;;;;;1999.90;999.90;;;8.80;99.90;;;;;;5098012;28;20435;-74
2023/10/18 09:28:06;;;;;;;1999.90;999.90;;;8.90;99.90;;;;;;5099448;28;20428;-74
2023/10/18 09:30:36;;;;;;;1999.90;999.90;;;8.80;99.90;;;;;;5108342;28;20747;-75
2023/10/18 09:33:03;;;;;;;1999.90;999.90;;;9.30;99.90;;;;;;5100638;28;20805;-73
2023/10/18 09:35:31;;;;;;;1999.90;999.90;;;8.90;99.90;;;;;;5106963;28;20432;-73
2023/10/18 09:38:03;;;;;;;1999.90;999.90;;;8.90;99.90;;;;;;5108080;28;20420;-74
2023/10/18 09:40:30;;;;;;;1999.90;999.90;;;9.10;99.90;;;;;;5091467;28;20406;-74
2023/10/18 09:42:57;;;;;;;1999.90;999.90;;;8.90;99.90;;;;;;5097318;28;20428;-73
2023/10/18 09:45:23;;;;;;;1999.90;999.90;;;8.90;99.90;;;;;;5109411;28;20410;-74
2023/10/18 09:47:51;;;;;;;1999.90;999.90;;;9.00;99.90;;;;;;5096758;28;20514;-74
2023/10/18 09:50:24;;;;;;;1999.90;999.90;;;9.10;99.90;;;;;;5092310;28;20432;-74
2023/10/18 09:52:57;;;;;;;1999.90;999.90;;;9.20;99.90;;;;;;5109877;28;20485;-73
2023/10/18 09:55:27;;;;;;;1999.90;999.90;;;9.40;99.90;;;;;;5106628;28;20474;-73
2023/10/18 09:58:02;;;;;;;1999.90;999.90;;;9.40;99.90;;;;;;5090140;28;21081;-75
2023/10/18 10:00:31;;;;;;;1999.90;999.90;;;9.40;99.90;;;;;;5099978;28;20420;-74
2023/10/18 10:02:59;;;;;;;1999.90;999.90;;;9.30;99.90;;;;;;5096009;28;20597;-74
2023/10/18 10:05:26;;;;;;;1999.90;999.90;;;9.30;99.90;;;;;;5103859;28;20426;-74
2023/10/18 10:07:56;;;;;;;1999.90;999.90;;;9.30;99.90;;;;;;5095708;28;20430;-73
2023/10/18 10:10:42;;;;;;;1999.90;999.90;;;9.40;99.90;;;;;;5109631;28;20420;-75
2023/10/18 10:13:18;;;;;;;1999.90;999.90;;;9.50;99.90;;;;;;5112408;28;20426;-75
2023/10/18 10:15:46;;;;;;;1999.90;999.90;;;9.70;99.90;;;;;;5111625;28;20450;-76
2023/10/18 10:18:14;;;;;;;1999.90;999.90;;;9.80;99.90;;;;;;5121995;28;20434;-75
2023/10/18 10:20:42;;;;;;;1999.90;999.90;;;10.00;99.90;;;;;;5109218;28;20451;-75
2023/10/18 10:23:15;;;;;;;1999.90;999.90;;;10.00;99.90;;;;;;5100738;28;20485;-73
2023/10/18 10:25:48;;;;;;;1999.90;999.90;;;10.20;99.90;;;;;;5107920;28;20547;-75
2023/10/18 10:31:51;;;;;;;1999.90;999.90;;;9.90;99.90;;;;;;5074330;28;20378;-73
2023/10/18 10:34:26;;;;;;;1999.90;999.90;;;10.00;99.90;;;;;;5064502;28;20451;-74
2023/10/18 10:36:53;;;;;;;1999.90;999.90;;;10.20;99.90;;;;;;5064789;28;20432;-73
2023/10/18 10:39:30;;;;;;;1999.90;999.90;;;10.20;99.90;;;;;;5073891;28;20415;-73
2023/10/18 10:42:00;;;;;;;1999.90;999.90;;;10.20;99.90;;;;;;5064222;28;20417;-73
2023/10/18 10:44:31;;;;;;;1999.90;999.90;;;10.70;99.90;;;;;;5059763;28;20951;-73
2023/10/18 10:47:29;;;;;;;1999.90;999.90;;;10.40;99.90;;;;;;5062014;28;20448;-73
2023/10/18 10:49:59;;;;;;;1999.90;999.90;;;10.60;99.90;;;;;;5067474;28;20428;-73
2023/10/18 10:52:29;;;;;;;1999.90;999.90;;;10.50;99.90;;;;;;5066295;28;20486;-73
2023/10/18 10:55:02;;;;;;;1999.90;999.90;;;10.60;99.90;;;;;;5061906;28;20413;-73
2023/10/18 10:57:30;;;;;;;1999.90;999.90;;;10.60;99.90;;;;;;5066301;28;20470;-72
2023/10/18 10:59:58;;;;;;;1999.90;999.90;;;10.60;99.90;;;;;;5063949;28;20434;-73
2023/10/18 11:02:39;;;;;;;1999.90;999.90;;;10.70;99.90;;;;;;5058944;28;20437;-73
2023/10/18 11:05:15;;;;;;;1999.90;999.90;;;10.90;99.90;;;;;;5063359;28;20470;-74
2023/10/18 11:07:44;;;;;;;1999.90;999.90;;;11.00;99.90;;;;;;5062254;28;20459;-74
2023/10/18 11:10:15;;;;;;;1999.90;999.90;;;11.00;99.90;;;;;;5055085;28;20452;-73
2023/10/18 11:12:45;;;;;;;1999.90;999.90;;;10.90;99.90;;;;;;5052945;28;20438;-74
2023/10/18 11:15:17;;;;;;;1999.90;999.90;;;10.90;99.90;;;;;;5054177;28;20432;-72
2023/10/18 11:17:47;;;;;;;1999.90;999.90;;;10.90;99.90;;;;;;5053218;28;20494;-73
2023/10/18 11:20:21;;;;;;;1999.90;999.90;;;11.10;99.90;;;;;;5057732;28;20430;-73
2023/10/18 11:22:50;;;;;;;1999.90;999.90;;;11.20;99.90;;;;;;5056560;28;21090;-74
2023/10/18 11:25:21;;;;;;;1999.90;999.90;;;11.30;99.90;;;;;;5056822;28;20426;-73
2023/10/18 11:27:47;;;;;;;1999.90;999.90;;;11.30;99.90;;;;;;5057314;28;20425;-72
2023/10/18 11:30:17;;;;;;;1999.90;999.90;;;11.30;99.90;;;;;;5071559;28;20982;-73
2023/10/18 11:32:48;;;;;;;1999.90;999.90;;;11.10;99.90;;;;;;5081981;28;20509;-73
2023/10/18 11:35:19;;;;;;;1999.90;999.90;;;11.00;99.90;;;;;;5077296;28;20851;-73
2023/10/18 11:37:47;;;;;;;1999.90;999.90;;;10.90;99.90;;;;;;5080107;28;20454;-73
2023/10/18 11:40:18;;;;;;;1999.90;999.90;;;10.80;99.90;;;;;;5084402;28;20447;-73
2023/10/18 11:42:55;;;;;;;1999.90;999.90;;;10.50;99.90;;;;;;5073254;28;20419;-73
2023/10/18 11:45:27;;;;;;;1999.90;999.90;;;10.40;99.90;;;;;;5071304;28;20504;-73
2023/10/18 11:47:55;;;;;;;1999.90;999.90;;;10.60;99.90;;;;;;5070978;28;20442;-73
2023/10/18 11:50:23;;;;;;;1999.90;999.90;;;10.60;99.90;;;;;;5072487;28;20427;-73
2023/10/18 11:52:52;;;;;;;1999.90;999.90;;;10.50;99.90;;;;;;5072834;28;20412;-72
2023/10/18 11:55:20;;;;;;;1999.90;999.90;;;10.50;99.90;;;;;;5071718;28;20946;-73
2023/10/18 11:57:47;;;;;;;1999.90;999.90;;;10.20;99.90;;;;;;5072466;28;20416;-73
2023/10/18 12:03:05;;;;;;;1999.90;999.90;;;10.40;99.90;;;;;;5060641;28;20423;-73
2023/10/18 12:05:32;;;;;;;1999.90;999.90;;;10.30;99.90;;;;;;5062826;28;20432;-73
2023/10/18 12:08:05;;;;;;;1999.90;999.90;;;10.20;99.90;;;;;;5068450;28;20432;-73
2023/10/18 12:10:35;;;;;;;1999.90;999.90;;;10.30;99.90;;;;;;5067632;28;20475;-71
2023/10/18 12:13:06;;;;;;;1999.90;999.90;;;10.20;99.90;;;;;;5062632;28;20506;-73
2023/10/18 12:15:33;;;;;;;1999.90;999.90;;;10.30;99.90;;;;;;5063775;28;20465;-73
2023/10/18 12:18:03;;;;;;;1999.90;999.90;;;10.50;99.90;;;;;;5067281;28;20427;-73
2023/10/18 12:20:43;;;;;;;1999.90;999.90;;;10.00;99.90;;;;;;5072368;28;20412;-73
2023/10/18 12:23:12;;;;;;;1999.90;999.90;;;10.50;99.90;;;;;;5072375;28;20495;-73
2023/10/18 12:25:42;;;;;;;1999.90;999.90;;;10.10;99.90;;;;;;5071195;28;20774;-73
2023/10/18 12:28:12;;;;;;;1999.90;999.90;;;10.10;99.90;;;;;;5067172;28;20436;-74
2023/10/18 12:30:41;;;;;;;1999.90;999.90;;;10.10;99.90;;;;;;5060754;28;20423;-73
2023/10/18 12:33:14;;;;;;;1999.90;999.90;;;9.90;99.90;;;;;;5069002;28;20431;-73
2023/10/18 12:35:42;;;;;;;1999.90;999.90;;;9.80;99.90;;;;;;5064055;28;20424;-73
2023/10/18 12:38:14;;;;;;;1999.90;999.90;;;10.20;99.90;;;;;;5063945;28;20441;-73